Have a Safe July 4th! 

Flight Track Log - Related Links

Times and Time Zones

All times are in EDT time to prevent confusion due to time zone crossing. See the TPA702 flight status page for this flight to view local times or setup timezone preferences in your user account.

Time Position Orientation Groundspeed Altitude Reporting Facility
EDT Latitude Longitude Course Direction KTS MPH feet Rate Location/Type
Fri 09:39:10 PM 22.5972 -78.7714 347° North 475 547 38,000  Level Miami Center
Fri 09:40:10 PM 22.7200 -78.7933 351° North 457 526 38,000  Level Miami Center
Fri 09:41:10 PM 22.8431 -78.8222 348° North 457 526 38,000  Level Miami Center
Fri 09:42:00 PM 8.4007 -75.9365 347° North  Level Estimated
Fri 09:42:10 PM 22.9639 -78.8489 349° North 443 510 38,000  Level Miami Center
Fri 09:43:00 PM 8.5168 -75.9633 347° North  Level Estimated
Fri 09:43:12 PM 23.0908 -78.8803 347° North 449 517 38,000  Level Miami Center
Fri 09:44:00 PM 8.6328 -75.9901 347° North  Level Estimated
Fri 09:44:10 PM 23.2158 -78.9092 348° North 442 509 38,000  Level Miami Center
Fri 09:45:11 PM 23.3389 -78.9294 351° North 456 525 38,000  Level Miami Center
Fri 09:46:11 PM 23.4636 -78.9608 347° North 452 520 38,000  Level Miami Center
Fri 09:47:12 PM 23.5825 -78.9808 351° North 445 512 38,000  Level Miami Center
Fri 09:48:13 PM 23.7075 -79.0103 348° North 445 512 38,000  Level Miami Center
Fri 09:49:10 PM 23.8325 -79.0397 348° North 450 518 38,000  Level Miami Center
Fri 09:50:11 PM 23.9575 -79.0644 350° North 439 505 38,000  Level Miami Center
Fri 09:51:10 PM 24.0758 -79.1097 341° North 445 512 38,000 -1,350 Level Miami Center
Fri 09:52:11 PM 24.1900 -79.1619 337° Northwest 445 512 35,300 -2,876 Descending Miami Center
Fri 09:53:11 PM 24.3042 -79.2164 337° Northwest 450 518 32,200 -1,664 Descending Miami Center
Fri 09:54:10 PM 24.4286 -79.2689 339° North 456 525 32,000 -550 Descending Miami Center
Fri 09:55:11 PM 24.5489 -79.3239 337° Northwest 456 525 31,100 -2,245 Descending Miami Center
Fri 10:01:07 PM 25.2160 -79.6450 337° Northwest 404 465 16,400 -2,409 Descending FlightAware ADS-B
Fri 10:01:47 PM 25.2810 -79.6760 337° Northwest 385 443 15,200 -2,471 Descending FlightAware ADS-B
Fri 10:02:32 PM 25.3570 -79.7120 337° Northwest 372 428 12,900 -2,471 Descending FlightAware ADS-B
Fri 10:03:12 PM 25.4090 -79.7520 325° Northwest 338 389 11,700 -1,341 Descending FlightAware ADS-B
Fri 10:03:57 PM 25.4490 -79.8140 306° West 331 381 11,000 -776 Descending FlightAware ADS-B
Fri 10:04:37 PM 25.4860 -79.8700 306° West 306 352 10,600 -675 Descending FlightAware ADS-B
Fri 10:05:17 PM 25.5170 -79.9180 306° West 287 330 10,100 -771 Descending FlightAware ADS-B
Fri 10:05:47 PM 25.5410 -79.9540 306° West 284 327 9,700 -700 Descending FlightAware ADS-B
Fri 10:06:17 PM 25.5650 -79.9900 306° West 284 327 9,400 -655 Descending FlightAware ADS-B
Fri 10:06:42 PM 25.5840 -80.0200 305° West 278 320 9,100 -655 Descending FlightAware ADS-B
Fri 10:07:12 PM 25.6070 -80.0550 306° West 282 325 8,800 -655 Descending FlightAware ADS-B
Fri 10:07:37 PM 25.6260 -80.0840 306° West 279 321 8,500 -655 Descending FlightAware ADS-B
Fri 10:08:07 PM 25.6500 -80.1190 307° West 280 322 8,200 -500 Descending FlightAware ADS-B
Fri 10:08:37 PM 25.6670 -80.1560 297° West 261 300 8,000 -436 Descending FlightAware ADS-B
Fri 10:09:02 PM 25.6750 -80.1870 286° West 248 285 7,800 -720 Descending FlightAware ADS-B
Fri 10:09:27 PM 25.6830 -80.2170 286° West 237 273 7,400 -764 Descending FlightAware ADS-B
Fri 10:09:57 PM 25.6920 -80.2500 287° West 235 270 7,100 -667 Descending FlightAware ADS-B
Fri 10:10:12 PM 25.6960 -80.2680 284° West 226 260 6,900 -933 Descending FlightAware ADS-B
Fri 10:10:42 PM 25.7050 -80.3000 287° West 204 235 6,400 -764 Descending FlightAware ADS-B
Fri 10:11:07 PM 25.7100 -80.3240 283° West 189 217 6,200 -655 Descending FlightAware ADS-B
Fri 10:11:37 PM 25.7090 -80.3500 268° West 176 203 5,800 -982 Descending FlightAware ADS-B
Fri 10:12:02 PM 25.7080 -80.3740 267° West 179 206 5,300 -982 Descending FlightAware ADS-B
Fri 10:12:32 PM 25.7070 -80.4020 268° West 181 208 4,900 -764 Descending FlightAware ADS-B
Fri 10:12:57 PM 25.7050 -80.4260 265° West 181 208 4,600 -600 Descending FlightAware ADS-B
Fri 10:13:12 PM 25.7050 -80.4400 270° West 182 209 4,500 -533 Descending FlightAware ADS-B
Fri 10:13:42 PM 25.7030 -80.4670 265° West 185 213 4,200 -655 Descending FlightAware ADS-B
Fri 10:14:07 PM 25.7080 -80.4900 284° West 182 209 3,900 -1,050 Descending FlightAware ADS-B
Fri 10:14:22 PM 25.7180 -80.4960 332° Northwest 184 212 3,500 -1,400 Descending FlightAware ADS-B
Fri 10:14:37 PM 25.7330 -80.4990 350° North 181 208 3,200 -764 Descending FlightAware ADS-B
Fri 10:15:17 PM 25.7630 -80.4870 20° North 173 199 2,800 -514 Descending FlightAware ADS-B
Fri 10:15:47 PM 25.7780 -80.4660 52° Northeast 171 197 2,600 -667 Descending FlightAware ADS-B
Fri 10:16:02 PM 25.7800 -80.4540 80° East 168 193 2,300 -982 Descending FlightAware ADS-B
Fri 10:16:42 PM 25.7820 -80.4200 86° East 159 183 1,700 -831 Descending FlightAware ADS-B
Fri 10:17:07 PM 25.7820 -80.4010 90° East 141 162 1,400 -360 Descending FlightAware ADS-B
Fri 10:17:32 PM 25.7830 -80.3850 86° East 141 162 1,400 -720 Level FlightAware ADS-B
Fri 10:18:22 PM 25.7850 -80.3510 86° East 134 154 500 -847 Descending FlightAware ADS-B
Fri 10:18:57 PM 25.7860 -80.3280 87° East 135 155 200 -300 Descending FlightAware ADS-B
Fri 10:19:22 PM 25.7860 -80.3120 90° East 135 155 200  Level FlightAware ADS-B

Login

Don't have an account? Register now (free) for customized features, flight alerts, and more!